Time;durP1;ratioP1;P1;durP2;ratioP2;P2;SDS_P1;SDS_P2;PMS_P1;PMS_P2;Temp;Humidity;BMP_temperature;BMP_pressure;BME280_temperature;BME280_humidity;BME280_pressure;Samples;Min_cycle;Max_cycle;Signal;HPM_P1;HPM_P2
2022/04/23 00:01:50;;;;;;;15.27;11.47;;;;;;;3.26;79.80;100124.98;1734126;81;21584;-73
2022/04/23 00:04:17;;;;;;;18.10;12.23;;;;;;;3.22;79.87;100125.91;1731994;81;21040;-86
2022/04/23 00:06:44;;;;;;;16.43;11.33;;;;;;;3.17;79.84;100123.80;1727311;82;21096;-73
2022/04/23 00:09:11;;;;;;;20.00;12.83;;;;;;;3.11;79.84;100118.69;1723601;81;21072;-86
2022/04/23 00:11:38;;;;;;;17.60;12.70;;;;;;;3.06;79.94;100116.59;1714428;82;21536;-73
2022/04/23 00:14:07;;;;;;;19.10;13.20;;;;;;;3.03;79.98;100112.73;1724793;82;21004;-87
2022/04/23 00:16:34;;;;;;;20.13;13.47;;;;;;;2.98;80.10;100116.66;1729419;82;21557;-73
2022/04/23 00:19:01;;;;;;;20.60;13.33;;;;;;;2.95;80.15;100116.70;1734875;81;21920;-85
2022/04/23 00:21:29;;;;;;;18.83;12.37;;;;;;;2.91;80.20;100113.73;1739682;82;21084;-73
2022/04/23 00:23:56;;;;;;;17.97;13.17;;;;;;;2.89;80.22;100117.63;1736907;81;21043;-72
2022/04/23 00:26:23;;;;;;;16.57;12.83;;;;;;;2.86;80.27;100114.22;1738895;81;21016;-72
2022/04/23 00:28:52;;;;;;;20.20;13.47;;;;;;;2.82;80.34;100114.66;1737047;82;21063;-72
2022/04/23 00:31:19;;;;;;;17.60;12.67;;;;;;;2.79;80.37;100110.81;1728374;81;21122;-72
2022/04/23 00:33:46;;;;;;;16.03;12.30;;;;;;;2.77;80.50;100114.28;1728752;82;20933;-72
2022/04/23 00:36:13;;;;;;;18.50;12.77;;;;;;;2.72;80.30;100109.62;1726487;80;21086;-74
2022/04/23 00:38:42;;;;;;;16.13;12.03;;;;;;;2.66;80.40;100115.27;1737293;82;21580;-72
2022/04/23 00:41:43;;;;;;;20.43;13.80;;;;;;;2.62;80.46;100108.83;1740151;82;21290;-79
2022/04/23 00:43:45;;;;;;;16.07;11.63;;;;;;;2.59;80.55;100106.27;1739245;81;21087;-86
2022/04/23 00:46:12;;;;;;;17.07;12.95;;;;;;;2.55;80.51;100105.86;1712903;82;21035;-72
2022/04/23 00:48:39;;;;;;;18.13;13.23;;;;;;;2.50;80.50;100107.22;1736747;82;21503;-72
2022/04/23 00:51:06;;;;;;;17.73;13.67;;;;;;;2.48;80.70;100108.10;1736423;82;21035;-80
2022/04/23 00:53:33;;;;;;;16.63;12.87;;;;;;;2.49;80.92;100107.22;1729473;81;21518;-73
2022/04/23 00:56:01;;;;;;;18.50;13.47;;;;;;;2.48;80.82;100107.66;1744141;82;21121;-73
2022/04/23 00:58:28;;;;;;;17.10;12.60;;;;;;;2.43;80.78;100108.98;1740982;82;21009;-73
2022/04/23 01:00:55;;;;;;;16.80;12.80;;;;;;;2.41;80.86;100112.04;1722189;82;21073;-73
2022/04/23 01:03:22;;;;;;;20.40;13.73;;;;;;;2.40;80.92;100116.77;1728540;83;21013;-72
2022/04/23 01:05:50;;;;;;;18.03;12.50;;;;;;;2.36;80.93;100108.63;1727304;81;21036;-73
2022/04/23 01:08:19;;;;;;;18.60;13.40;;;;;;;2.33;80.87;100107.77;1737960;81;21141;-75
2022/04/23 01:10:49;;;;;;;18.65;13.32;;;;;;;2.28;80.93;100106.53;1732881;80;21055;-72
2022/04/23 01:13:16;;;;;;;16.15;12.68;;;;;;;2.27;81.16;100105.24;1737341;81;21146;-72
2022/04/23 01:16:05;;;;;;;18.10;13.70;;;;;;;2.23;81.19;100100.09;1736867;82;21458;-73
2022/04/23 01:18:33;;;;;;;21.50;15.53;;;;;;;2.21;81.15;100096.66;1731312;81;21023;-72
2022/04/23 01:21:02;;;;;;;21.00;16.50;;;;;;;2.22;81.61;100091.08;1731362;82;21973;-80
2022/04/23 01:23:30;;;;;;;19.17;14.70;;;;;;;2.26;81.71;100086.28;1732884;81;21557;-72
2022/04/23 01:25:59;;;;;;;18.43;14.53;;;;;;;2.28;81.70;100086.29;1736002;81;20997;-73
2022/04/23 01:28:28;;;;;;;19.43;15.17;;;;;;;2.29;81.75;100088.84;1736117;81;20988;-72
2022/04/23 01:30:59;;;;;;;22.70;14.87;;;;;;;2.29;81.86;100085.41;1744367;80;21566;-73
2022/04/23 01:33:27;;;;;;;21.53;15.60;;;;;;;2.29;81.94;100085.41;1733265;80;21503;-72
2022/04/23 01:35:54;;;;;;;20.90;14.57;;;;;;;2.25;81.72;100083.29;1712358;82;21018;-73
2022/04/23 01:38:21;;;;;;;24.17;16.17;;;;;;;2.24;81.70;100076.38;1728044;83;21029;-73
2022/04/23 01:40:48;;;;;;;22.13;15.93;;;;;;;2.20;81.63;100073.41;1724362;82;22422;-81
2022/04/23 01:43:15;;;;;;;21.93;15.00;;;;;;;2.19;81.87;100075.56;1744446;81;21491;-73
2022/04/23 01:45:44;;;;;;;20.77;15.27;;;;;;;2.18;81.65;100080.32;1740183;81;21135;-83
2022/04/23 01:48:11;;;;;;;19.57;15.37;;;;;;;2.15;81.68;100082.48;1722512;82;21488;-73
2022/04/23 01:50:38;;;;;;;20.97;15.00;;;;;;;2.13;81.72;100085.52;1735482;81;21000;-73
2022/04/23 01:53:05;;;;;;;20.67;15.37;;;;;;;2.11;81.80;100082.11;1739835;80;20993;-72
2022/04/23 01:55:33;;;;;;;23.40;15.43;;;;;;;2.10;81.69;100086.84;1741783;80;21027;-72
2022/04/23 01:58:00;;;;;;;21.83;14.93;;;;;;;2.04;81.55;100081.72;1746763;81;21134;-73
2022/04/23 02:00:27;;;;;;;20.00;14.23;;;;;;;2.01;81.61;100085.18;1739192;81;21028;-73
2022/04/23 02:02:56;;;;;;;20.77;15.07;;;;;;;1.97;81.48;100092.55;1729034;82;21125;-72
2022/04/23 02:05:23;;;;;;;19.27;13.63;;;;;;;1.93;81.41;100089.55;1733643;80;21515;-72
2022/04/23 02:07:51;;;;;;;19.70;14.57;;;;;;;1.88;81.42;100085.27;1735981;82;21109;-73
2022/04/23 02:10:18;;;;;;;21.53;14.50;;;;;;;1.83;81.35;100085.33;1746676;81;21201;-72
2022/04/23 02:12:46;;;;;;;24.20;15.20;;;;;;;1.79;81.39;100084.91;1747975;81;21110;-73
2022/04/23 02:15:15;;;;;;;21.60;15.33;;;;;;;1.76;81.45;100082.34;1736581;82;20996;-76
2022/04/23 02:17:45;;;;;;;20.70;15.08;;;;;;;1.72;81.38;100084.53;1724813;82;21178;-78
2022/04/23 02:20:18;;;;;;;23.00;15.07;;;;;;;1.65;81.35;100092.73;1742168;80;21099;-72
2022/04/23 02:22:46;;;;;;;20.13;15.13;;;;;;;1.62;81.52;100093.20;1736272;81;21161;-72
2022/04/23 02:25:13;;;;;;;22.90;15.53;;;;;;;1.59;81.57;100086.76;1746411;80;21513;-76
2022/04/23 02:27:46;;;;;;;21.83;15.03;;;;;;;1.57;81.69;100088.05;1746115;80;21016;-75
2022/04/23 02:30:17;;;;;;;24.13;15.20;;;;;;;1.55;81.76;100090.66;1743615;81;21122;-73
2022/04/23 02:32:46;;;;;;;21.67;15.17;;;;;;;1.52;81.72;100090.67;1747558;80;21086;-78
2022/04/23 02:35:15;;;;;;;20.13;14.73;;;;;;;1.51;81.74;100090.66;1728137;81;21104;-84
2022/04/23 02:37:47;;;;;;;21.00;15.13;;;;;;;1.46;81.67;100085.52;1736989;81;21584;-72
2022/04/23 02:40:16;;;;;;;22.67;15.43;;;;;;;1.43;81.63;100093.72;1746043;81;21072;-87
2022/04/23 02:42:44;;;;;;;20.43;15.03;;;;;;;1.41;81.72;100085.11;1729000;82;20936;-74
2022/04/23 02:45:16;;;;;;;19.93;14.50;;;;;;;1.39;81.74;100092.03;1737388;81;21080;-72
2022/04/23 02:47:50;;;;;;;20.67;15.37;;;;;;;1.36;81.81;100090.73;1745636;82;21126;-72
2022/04/23 02:50:34;;;;;;;20.47;14.27;;;;;;;1.32;81.76;100092.03;1743792;80;20989;-72
2022/04/23 02:53:03;;;;;;;23.57;15.70;;;;;;;1.30;81.92;100093.78;1725570;82;21008;-72
2022/04/23 02:55:32;;;;;;;22.97;15.47;;;;;;;1.31;82.05;100094.64;1730677;82;21588;-72
2022/04/23 02:58:10;;;;;;;21.80;13.83;;;;;;;1.29;82.05;100094.63;1738422;80;21031;-72
2022/04/23 03:00:41;;;;;;;26.43;16.60;;;;;;;1.27;82.07;100094.20;1735228;82;21308;-72
2022/04/23 03:03:11;;;;;;;22.60;14.80;;;;;;;1.25;82.08;100095.52;1725936;82;21049;-86
2022/04/23 03:05:42;;;;;;;22.73;15.78;;;;;;;1.26;82.34;100097.67;1729561;82;20989;-73
2022/04/23 03:08:09;;;;;;;21.97;15.50;;;;;;;1.27;82.33;100107.12;1743940;81;21462;-72
2022/04/23 03:10:39;;;;;;;25.23;17.27;;;;;;;1.26;82.36;100104.97;1745312;80;21070;-72
2022/04/23 03:13:07;;;;;;;24.33;16.40;;;;;;;1.26;82.44;100104.13;1739162;81;21126;-72
2022/04/23 03:15:36;;;;;;;22.77;15.70;;;;;;;1.25;82.51;100095.52;1736594;80;21530;-72
2022/04/23 03:18:12;;;;;;;22.70;15.43;;;;;;;1.25;82.42;100099.84;1722983;80;20996;-72
2022/04/23 03:20:43;;;;;;;24.70;17.47;;;;;;;1.23;82.40;100100.27;1738453;81;21083;-73
2022/04/23 03:23:14;;;;;;;29.20;17.43;;;;;;;1.24;82.67;100107.98;1732418;80;21012;-87
2022/04/23 03:25:41;;;;;;;23.67;16.40;;;;;;;1.26;82.77;100106.70;1726946;80;21094;-73
2022/04/23 03:28:08;;;;;;;26.03;18.37;;;;;;;1.30;82.91;100107.10;1729811;79;21016;-72
2022/04/23 03:30:35;;;;;;;25.43;18.07;;;;;;;1.32;83.27;100108.81;1733412;81;21099;-78
2022/04/23 03:33:02;;;;;;;24.97;16.73;;;;;;;1.34;83.04;100105.80;1746445;80;21088;-81
2022/04/23 03:35:29;;;;;;;24.50;16.27;;;;;;;1.32;82.72;100106.23;1715540;81;21487;-82
2022/04/23 03:37:57;;;;;;;26.07;16.47;;;;;;;1.31;82.79;100110.13;1739923;82;21517;-72
2022/04/23 03:40:24;;;;;;;22.20;16.77;;;;;;;1.31;82.75;100110.98;1743495;81;21005;-72
2022/04/23 03:42:51;;;;;;;24.10;16.50;;;;;;;1.31;82.83;100108.84;1718684;81;21003;-85
2022/04/23 03:45:18;;;;;;;24.93;16.33;;;;;;;1.33;82.93;100113.14;1735668;80;21035;-82
2022/04/23 03:47:47;;;;;;;24.37;16.57;;;;;;;1.33;82.74;100116.13;1739124;80;21513;-72
2022/04/23 03:50:15;;;;;;;24.97;16.67;;;;;;;1.28;82.61;100118.75;1734062;81;21099;-85
2022/04/23 03:52:43;;;;;;;21.40;15.43;;;;;;;1.26;82.58;100118.32;1732863;82;21036;-85
2022/04/23 03:55:11;;;;;;;23.33;15.73;;;;;;;1.24;82.60;100120.05;1712375;81;21106;-73
2022/04/23 03:57:50;;;;;;;23.00;15.87;;;;;;;1.24;82.67;100123.91;1714500;81;21059;-74
2022/04/23 04:00:23;;;;;;;22.67;15.83;;;;;;;1.24;82.79;100121.33;1718506;82;21616;-78
2022/04/23 04:02:50;;;;;;;22.90;15.60;;;;;;;1.23;82.80;100115.75;1741983;80;21518;-74
2022/04/23 04:05:18;;;;;;;23.57;16.57;;;;;;;1.25;82.90;100119.20;1727552;82;21028;-75
2022/04/23 04:07:47;;;;;;;24.67;17.13;;;;;;;1.24;82.77;100116.17;1738238;81;21079;-74
2022/04/23 04:10:18;;;;;;;24.92;16.55;;;;;;;1.22;82.86;100118.77;1745093;80;21031;-75
2022/04/23 04:12:45;;;;;;;22.45;16.30;;;;;;;1.24;82.94;100121.33;1738284;81;27892;-75
2022/04/23 04:15:16;;;;;;;25.73;16.63;;;;;;;1.24;83.06;100117.46;1735678;80;21177;-75
2022/04/23 04:17:47;;;;;;;22.17;16.17;;;;;;;1.25;83.09;100117.47;1726931;83;21475;-77
2022/04/23 04:20:15;;;;;;;29.30;18.60;;;;;;;1.28;83.25;100116.16;1723825;80;21019;-74
2022/04/23 04:22:44;;;;;;;27.10;19.03;;;;;;;1.32;83.61;100119.14;1729346;82;21009;-74
2022/04/23 04:25:13;;;;;;;27.67;19.90;;;;;;;1.41;83.97;100118.25;1733410;81;21068;-74
2022/04/23 04:27:41;;;;;;;31.27;20.37;;;;;;;1.51;84.32;100114.77;1731771;81;21270;-74
2022/04/23 04:30:10;;;;;;;26.30;19.13;;;;;;;1.62;84.52;100120.32;1737907;81;20917;-75
2022/04/23 04:32:39;;;;;;;26.33;19.30;;;;;;;1.69;84.50;100117.70;1742339;80;21649;-78
2022/04/23 04:35:06;;;;;;;28.37;19.37;;;;;;;1.76;84.51;100117.22;1718744;81;21005;-74
2022/04/23 04:37:33;;;;;;;28.53;20.63;;;;;;;1.83;84.50;100116.34;1721961;80;21082;-74
2022/04/23 04:40:00;;;;;;;30.47;21.40;;;;;;;1.91;84.69;100116.27;1726587;82;21132;-75
2022/04/23 04:42:27;;;;;;;30.60;20.60;;;;;;;2.01;84.82;100114.05;1724596;81;21147;-84
2022/04/23 04:44:54;;;;;;;27.50;20.50;;;;;;;2.08;84.91;100110.58;1727147;83;21546;-74
2022/04/23 04:47:21;;;;;;;28.90;21.37;;;;;;;2.18;84.98;100112.64;1722554;81;21012;-75
2022/04/23 04:49:48;;;;;;;30.27;20.57;;;;;;;2.26;85.05;100116.03;1721273;81;21530;-82
2022/04/23 04:52:15;;;;;;;31.57;20.13;;;;;;;2.36;85.07;100116.83;1742305;80;21086;-77
2022/04/23 04:54:42;;;;;;;28.60;20.27;;;;;;;2.44;85.09;100118.48;1726171;82;21568;-74
2022/04/23 04:57:09;;;;;;;32.47;21.33;;;;;;;2.51;85.06;100117.12;1743403;81;21469;-75
2022/04/23 04:59:36;;;;;;;28.40;20.10;;;;;;;2.60;85.17;100120.47;1711131;82;20997;-78
2022/04/23 05:02:03;;;;;;;30.83;22.13;;;;;;;2.70;85.14;100122.55;1737974;81;21055;-74
2022/04/23 05:04:30;;;;;;;30.87;21.70;;;;;;;2.78;85.16;100124.63;1732103;82;21486;-74
2022/04/23 05:06:57;;;;;;;31.93;22.50;;;;;;;2.85;85.15;100123.69;1721700;82;21165;-75
2022/04/23 05:09:24;;;;;;;32.23;21.20;;;;;;;2.95;85.21;100127.50;1720758;82;21029;-74
2022/04/23 05:11:51;;;;;;;32.90;23.23;;;;;;;3.03;85.18;100130.42;1714172;81;21630;-76
2022/04/23 05:14:19;;;;;;;31.47;21.97;;;;;;;3.10;85.14;100133.79;1725411;81;21071;-75
2022/04/23 05:16:46;;;;;;;37.83;24.43;;;;;;;3.17;85.12;100136.75;1738903;81;21535;-75
2022/04/23 05:19:12;;;;;;;45.83;25.53;;;;;;;3.25;85.09;100141.41;1726634;81;21051;-75
2022/04/23 05:24:21;;;;;;;35.80;22.97;;;;;;;3.38;85.01;100139.55;1686767;83;21017;-78
2022/04/23 05:26:48;;;;;;;33.73;23.30;;;;;;;3.45;85.03;100130.80;1667575;84;21084;-74
2022/04/23 05:29:15;;;;;;;33.60;23.97;;;;;;;3.52;85.06;100127.69;1666440;83;21165;-74
2022/04/23 05:31:42;;;;;;;30.17;22.27;;;;;;;3.61;85.06;100130.62;1664700;84;22151;-78
2022/04/23 05:34:09;;;;;;;32.03;22.67;;;;;;;3.69;85.02;100129.64;1692015;83;21098;-74
2022/04/23 05:36:36;;;;;;;32.67;23.03;;;;;;;3.77;85.03;100132.99;1682067;83;21039;-75
2022/04/23 05:39:03;;;;;;;30.67;22.00;;;;;;;3.86;85.12;100126.82;1690867;83;21581;-75
2022/04/23 05:41:30;;;;;;;32.27;21.70;;;;;;;3.96;85.11;100134.89;1669906;83;21111;-75
2022/04/23 05:43:58;;;;;;;31.50;21.93;;;;;;;4.06;85.15;100135.61;1681795;83;21624;-75
2022/04/23 05:46:25;;;;;;;30.80;20.83;;;;;;;4.18;85.19;100135.85;1694240;83;21078;-75
2022/04/23 05:48:52;;;;;;;31.83;21.40;;;;;;;4.27;85.17;100133.14;1705800;82;21017;-75
2022/04/23 05:51:18;;;;;;;29.07;21.27;;;;;;;4.38;85.03;100135.53;1730486;82;21080;-76
2022/04/23 05:53:45;;;;;;;28.30;21.50;;;;;;;4.48;85.08;100132.77;1728067;82;21762;-77
2022/04/23 05:56:12;;;;;;;28.73;20.43;;;;;;;4.59;85.07;100134.34;1729807;82;21073;-74
2022/04/23 05:58:40;;;;;;;29.50;20.87;;;;;;;4.67;84.83;100132.48;1715544;82;21008;-76
2022/04/23 06:01:07;;;;;;;28.17;21.00;;;;;;;4.76;84.81;100134.05;1728438;82;20984;-74
2022/04/23 06:03:34;;;;;;;30.60;21.43;;;;;;;4.86;84.75;100133.02;1725898;82;21056;-74
2022/04/23 06:06:01;;;;;;;27.33;19.57;;;;;;;4.96;84.65;100134.58;1728958;82;21156;-75
2022/04/23 06:08:28;;;;;;;27.37;19.30;;;;;;;5.05;84.59;100138.29;1729438;82;21983;-74
2022/04/23 06:10:55;;;;;;;26.90;19.73;;;;;;;5.14;84.46;100134.21;1726758;82;21030;-74
2022/04/23 06:13:22;;;;;;;24.77;19.60;;;;;;;5.24;84.41;100127.56;1724660;82;21008;-73
2022/04/23 06:15:49;;;;;;;28.37;19.03;;;;;;;5.34;84.59;100129.91;1715376;82;21036;-74
2022/04/23 06:18:16;;;;;;;32.37;24.60;;;;;;;5.45;84.44;100131.00;1715509;82;21077;-73
2022/04/23 06:20:43;;;;;;;29.43;20.87;;;;;;;5.54;84.31;100126.94;1717114;82;21445;-74
2022/04/23 06:23:10;;;;;;;39.60;34.47;;;;;;;5.62;84.28;100128.50;1714356;83;21031;-74
2022/04/23 06:25:37;;;;;;;34.60;29.17;;;;;;;5.73;84.14;100135.17;1715336;82;21028;-74
2022/04/23 06:28:05;;;;;;;30.57;21.43;;;;;;;5.84;84.06;100134.10;1707271;83;21009;-74
2022/04/23 06:30:32;;;;;;;32.77;23.07;;;;;;;5.93;83.64;100135.19;1713655;82;21192;-74
2022/04/23 06:32:59;;;;;;;27.67;20.00;;;;;;;6.01;83.63;100136.79;1717655;82;21012;-79
2022/04/23 06:35:26;;;;;;;28.27;18.97;;;;;;;6.12;83.55;100130.47;1715793;82;21007;-79
2022/04/23 06:37:54;;;;;;;23.47;17.77;;;;;;;6.21;83.55;100132.42;1718359;82;21521;-76
2022/04/23 06:40:21;;;;;;;22.57;17.43;;;;;;;6.32;83.50;100136.08;1714680;83;21059;-76
2022/04/23 06:42:48;;;;;;;23.73;17.73;;;;;;;6.43;83.50;100125.41;1716373;82;21939;-75
2022/04/23 06:45:17;;;;;;;23.20;17.27;;;;;;;6.55;83.42;100132.05;1715593;82;21001;-75
2022/04/23 06:47:45;;;;;;;21.63;15.83;;;;;;;6.66;83.47;100124.83;1717141;82;20970;-75
2022/04/23 06:50:12;;;;;;;19.85;14.60;;;;;;;6.75;82.84;100123.73;1718261;82;21090;-75
2022/04/23 06:52:39;;;;;;;22.27;15.57;;;;;;;6.85;82.66;100125.22;1718483;83;21005;-75
2022/04/23 06:55:07;;;;;;;19.43;14.10;;;;;;;6.97;82.75;100116.21;1714390;83;21155;-75
2022/04/23 06:57:44;;;;;;;19.13;13.97;;;;;;;7.10;82.63;100121.05;1716712;82;21554;-73
2022/04/23 07:00:13;;;;;;;19.03;14.27;;;;;;;7.25;82.60;100122.37;1716039;82;21094;-74
2022/04/23 07:02:40;;;;;;;17.50;14.37;;;;;;;7.38;82.56;100120.29;1715416;82;21570;-73
2022/04/23 07:05:08;;;;;;;17.70;13.37;;;;;;;7.52;82.38;100119.89;1718318;82;21095;-76
2022/04/23 07:07:36;;;;;;;17.00;12.70;;;;;;;7.64;82.03;100119.98;1714982;82;21217;-76
2022/04/23 07:10:04;;;;;;;17.90;13.77;;;;;;;7.73;81.66;100112.75;1719697;82;21049;-75
2022/04/23 07:12:33;;;;;;;15.90;12.30;;;;;;;7.86;81.78;100106.69;1715285;82;21055;-75
2022/04/23 07:15:01;;;;;;;15.90;12.27;;;;;;;8.00;81.61;100107.11;1715639;82;21103;-74
2022/04/23 07:17:27;;;;;;;16.67;13.20;;;;;;;8.15;81.48;100104.95;1714254;82;20996;-74
2022/04/23 07:19:54;;;;;;;17.33;12.67;;;;;;;8.28;81.33;100104.94;1715377;82;21901;-75
2022/04/23 07:22:21;;;;;;;16.00;12.03;;;;;;;8.39;80.83;100104.63;1709837;82;21478;-77
2022/04/23 07:24:50;;;;;;;14.73;11.47;;;;;;;8.49;80.62;100109.95;1713450;82;21028;-74
2022/04/23 07:27:17;;;;;;;12.47;9.97;;;;;;;8.64;80.63;100112.04;1719607;82;21036;-76
2022/04/23 07:29:44;;;;;;;15.33;11.13;;;;;;;8.77;80.01;100106.41;1722258;83;21256;-78
2022/04/23 07:32:11;;;;;;;12.87;10.03;;;;;;;8.86;79.69;100102.17;1716009;82;21200;-75
2022/04/23 07:37:30;;;;;;;13.40;9.40;;;;;;;9.07;79.38;100106.65;1717778;82;21027;-73
2022/04/23 07:40:10;;;;;;;12.40;8.90;;;;;;;9.25;79.12;100105.58;1710608;83;21061;-79
2022/04/23 07:42:33;;;;;;;14.00;9.17;;;;;;;9.41;79.17;100104.11;1718273;82;21036;-81
2022/04/23 07:45:00;;;;;;;14.07;10.17;;;;;;;9.57;78.75;100108.33;1729292;82;21576;-89
2022/04/23 07:47:32;;;;;;;13.17;9.77;;;;;;;9.66;78.26;100110.59;1707900;82;21075;-89
2022/04/23 07:49:58;;;;;;;11.27;9.33;;;;;;;9.75;77.63;100105.45;1719115;82;21073;-88
2022/04/23 07:52:25;;;;;;;9.80;8.67;;;;;;;9.85;77.49;100103.36;1721920;82;21517;-75
2022/04/23 07:54:52;;;;;;;11.43;8.93;;;;;;;9.95;77.33;100098.14;1716609;82;21023;-76
2022/04/23 07:57:23;;;;;;;12.33;9.97;;;;;;;10.04;77.04;100099.95;1732506;82;21201;-76
2022/04/23 07:59:50;;;;;;;10.83;8.53;;;;;;;10.13;76.93;100095.27;1723712;82;21564;-76
2022/04/23 08:02:17;;;;;;;10.27;8.30;;;;;;;10.30;76.79;100091.53;1731809;82;21044;-75
2022/04/23 08:04:45;;;;;;;9.33;7.93;;;;;;;10.47;76.63;100090.83;1723896;82;20984;-75
2022/04/23 08:07:13;;;;;;;8.25;7.45;;;;;;;10.62;76.20;100091.98;1723688;82;21023;-75
2022/04/23 08:09:40;;;;;;;8.67;7.53;;;;;;;10.77;76.08;100091.31;1729694;82;21127;-75
2022/04/23 08:12:09;;;;;;;9.17;8.10;;;;;;;10.94;75.99;100090.59;1733044;82;21094;-76
2022/04/23 08:14:37;;;;;;;10.25;8.35;;;;;;;11.11;75.49;100091.16;1723783;82;21105;-75
2022/04/23 08:17:04;;;;;;;10.75;9.00;;;;;;;11.26;75.24;100084.39;1714397;82;21039;-75
2022/04/23 08:19:32;;;;;;;9.60;8.30;;;;;;;11.39;74.94;100089.48;1715519;82;21597;-75
2022/04/23 08:21:58;;;;;;;10.35;8.53;;;;;;;11.49;74.39;100092.06;1726645;82;21136;-75
2022/04/23 08:24:25;;;;;;;9.83;8.33;;;;;;;11.61;74.15;100086.27;1725727;82;20984;-76
2022/04/23 08:26:52;;;;;;;14.18;10.48;;;;;;;11.72;73.87;100083.14;1725174;82;21016;-75
2022/04/23 08:32:06;;;;;;;12.28;10.38;;;;;;;11.95;73.47;100089.11;1731270;82;21052;-75
2022/04/23 08:34:33;;;;;;;11.30;8.93;;;;;;;12.01;73.00;100083.09;1729302;82;21089;-75
2022/04/23 08:37:00;;;;;;;13.35;10.55;;;;;;;12.10;72.88;100081.80;1724509;82;20996;-75
2022/04/23 08:39:27;;;;;;;12.47;10.38;;;;;;;12.18;72.41;100073.08;1731673;82;21004;-75
2022/04/23 08:41:54;;;;;;;13.30;10.43;;;;;;;12.27;72.42;100078.34;1730609;82;20913;-76
2022/04/23 08:44:21;;;;;;;14.70;10.78;;;;;;;12.36;72.17;100073.97;1724846;82;21040;-75
2022/04/23 08:46:51;;;;;;;12.18;9.83;;;;;;;12.48;72.05;100075.97;1725601;82;21134;-79
2022/04/23 08:49:18;;;;;;;11.03;9.78;;;;;;;12.60;71.53;100076.28;1708727;82;21456;-74
2022/04/23 08:51:52;;;;;;;10.95;9.70;;;;;;;12.65;70.92;100067.70;1732239;82;21482;-76
2022/04/23 08:54:23;;;;;;;11.43;9.75;;;;;;;12.73;70.86;100072.95;1703749;82;21083;-75
2022/04/23 08:56:50;;;;;;;11.50;9.53;;;;;;;12.87;70.79;100064.82;1726218;82;21051;-76
2022/04/23 08:59:20;;;;;;;10.32;9.28;;;;;;;12.97;70.23;100062.11;1715165;82;21916;-75
2022/04/23 09:01:47;;;;;;;10.25;8.95;;;;;;;13.00;69.41;100064.58;1726136;82;21100;-76
2022/04/23 09:04:14;;;;;;;12.20;10.50;;;;;;;13.04;69.47;100062.15;1725050;82;21019;-75
2022/04/23 09:06:46;;;;;;;11.75;10.05;;;;;;;13.14;69.37;100066.48;1733851;82;21068;-76
2022/04/23 09:09:17;;;;;;;10.68;9.30;;;;;;;13.24;69.17;100062.88;1735020;82;21115;-75
2022/04/23 09:11:56;;;;;;;11.22;9.60;;;;;;;13.22;68.36;100057.71;1727500;82;21093;-75
2022/04/23 09:14:33;;;;;;;10.87;9.73;;;;;;;13.26;67.83;100061.05;1726293;82;21529;-75
2022/04/23 09:25:39;;;;;;;11.63;8.80;;;;;;;13.58;67.25;100050.95;1704072;82;21124;-76
2022/04/23 09:28:28;;;;;;;8.75;7.87;;;;;;;13.69;67.23;100052.99;1723850;82;21100;-75
2022/04/23 09:30:56;;;;;;;8.83;8.03;;;;;;;13.88;66.71;100047.52;1728750;82;21069;-76
2022/04/23 09:33:28;;;;;;;10.93;7.87;;;;;;;14.02;66.43;100038.83;1716972;82;21155;-80
2022/04/23 09:36:04;;;;;;;8.98;8.08;;;;;;;14.04;65.58;100036.49;1727355;82;21497;-75
2022/04/23 09:38:31;;;;;;;8.63;7.78;;;;;;;14.17;65.85;100037.13;1730705;82;21099;-76
2022/04/23 09:41:19;;;;;;;8.90;7.97;;;;;;;14.42;65.55;100029.48;1729046;82;21036;-75
2022/04/23 09:43:51;;;;;;;7.37;6.67;;;;;;;14.67;65.00;100034.17;1711216;82;21051;-75
2022/04/23 09:46:19;;;;;;;8.38;7.53;;;;;;;14.87;64.80;100032.12;1726563;82;21426;-75
2022/04/23 09:48:50;;;;;;;7.60;6.87;;;;;;;15.19;64.68;100036.77;1724159;82;21510;-76
2022/04/23 09:51:26;;;;;;;8.30;7.50;;;;;;;15.96;64.46;100028.81;1693456;82;21517;-77
2022/04/23 09:53:54;;;;;;;9.15;7.50;;;;;;;15.96;64.46;100028.81;1717668;82;21084;-76
2022/04/23 09:56:25;;;;;;;8.48;7.67;;;;;;;16.39;63.76;100032.56;1720687;82;21046;-74
2022/04/23 09:58:53;;;;;;;8.53;7.70;;;;;;;16.63;62.55;100024.77;1719631;82;21056;-75
2022/04/23 10:01:22;;;;;;;8.43;7.62;;;;;;;16.89;62.03;100027.45;1694783;83;21022;-74
2022/04/23 10:03:54;;;;;;;7.70;7.00;;;;;;;17.13;61.42;100028.88;1703823;84;21081;-75
2022/04/23 10:06:23;;;;;;;6.95;6.28;;;;;;;17.35;60.42;100028.21;1699086;83;21508;-74
2022/04/23 10:08:57;;;;;;;6.92;6.20;;;;;;;17.55;60.44;100036.89;1695962;83;21066;-74
2022/04/23 10:11:27;;;;;;;6.55;5.95;;;;;;;17.81;59.46;100029.72;1701516;84;21064;-74
2022/04/23 10:14:03;;;;;;;6.90;6.20;;;;;;;17.95;58.28;100030.04;1698927;83;21561;-75
2022/04/23 10:16:34;;;;;;;7.22;6.53;;;;;;;18.04;57.99;100021.88;1699149;84;21287;-74
2022/04/23 10:19:02;;;;;;;7.17;6.47;;;;;;;18.17;56.97;100023.16;1702056;83;21035;-78
2022/04/23 10:21:34;;;;;;;7.90;6.25;;;;;;;18.00;56.38;100023.92;1702255;83;21479;-75
2022/04/23 10:24:21;;;;;;;7.22;6.53;;;;;;;18.14;56.54;100020.73;1696155;83;21040;-75
2022/04/23 10:26:57;;;;;;;11.10;7.78;;;;;;;18.48;56.29;100018.57;1700911;83;21036;-74
2022/04/23 10:29:26;;;;;;;9.13;8.23;;;;;;;18.55;55.73;100022.91;1699691;83;21171;-75
2022/04/23 10:32:17;;;;;;;10.23;9.23;;;;;;;18.49;55.42;100018.08;1697312;83;21009;-75
2022/04/23 10:34:44;;;;;;;9.88;8.98;;;;;;;18.24;54.79;100024.40;1696069;83;20988;-74
2022/04/23 10:37:30;;;;;;;10.68;9.68;;;;;;;17.92;54.79;100023.64;1700570;84;21039;-77
2022/04/23 10:40:02;;;;;;;10.32;9.23;;;;;;;17.64;54.62;100024.78;1703276;83;21030;-74
2022/04/23 10:42:31;;;;;;;10.43;9.40;;;;;;;17.25;54.20;100029.81;1697877;83;21275;-76
2022/04/23 10:45:06;;;;;;;11.10;9.20;;;;;;;16.95;54.28;100022.57;1671545;85;21043;-81
2022/04/23 10:47:35;;;;;;;11.18;8.70;;;;;;;16.74;54.58;100026.69;1707514;82;21350;-76
2022/04/23 10:50:23;;;;;;;10.68;9.68;;;;;;;16.56;54.45;100021.32;1715367;82;21553;-75
2022/04/23 10:52:54;;;;;;;9.58;8.68;;;;;;;16.38;54.33;100016.78;1707447;82;21545;-75
2022/04/23 10:55:21;;;;;;;9.68;8.78;;;;;;;16.28;54.32;100016.09;1713852;82;22180;-75
2022/04/23 10:57:55;;;;;;;11.83;9.60;;;;;;;16.63;54.79;100015.52;1722173;82;20993;-84
2022/04/23 11:00:26;;;;;;;9.05;8.23;;;;;;;17.19;54.58;100006.41;1722523;82;21012;-79
2022/04/23 11:03:07;;;;;;;8.43;7.30;;;;;;;17.73;54.64;100004.22;1723767;82;21092;-85
2022/04/23 11:14:39;;;;;;;8.20;7.03;;;;;;;19.97;52.16;99994.84;1690510;84;21114;-75
2022/04/23 11:17:08;;;;;;;7.72;6.92;;;;;;;19.70;51.04;99996.62;1653102;82;21075;-75
2022/04/23 11:19:35;;;;;;;7.25;6.55;;;;;;;19.27;50.51;99997.41;1722406;82;21137;-75
2022/04/23 11:22:03;;;;;;;7.08;6.20;;;;;;;18.78;50.05;99989.80;1728480;82;21114;-76
2022/04/23 11:24:30;;;;;;;6.62;6.03;;;;;;;18.41;50.14;99998.76;1710329;82;21015;-75
2022/04/23 11:26:59;;;;;;;7.25;6.62;;;;;;;18.11;50.17;99995.77;1667078;83;21046;-81
2022/04/23 11:29:27;;;;;;;6.80;6.20;;;;;;;17.84;50.15;99989.73;1701395;83;21199;-75
2022/04/23 11:31:58;;;;;;;7.37;5.95;;;;;;;17.57;50.13;99986.42;1689651;83;21623;-76
2022/04/23 11:34:24;;;;;;;7.15;6.45;;;;;;;17.37;50.36;99981.24;1686022;84;21122;-75
2022/04/23 11:36:51;;;;;;;6.92;6.33;;;;;;;17.21;50.24;99983.30;1696858;83;21052;-76
2022/04/23 11:39:30;;;;;;;7.20;6.50;;;;;;;17.07;49.90;99985.14;1701383;83;21050;-75
2022/04/23 11:41:56;;;;;;;6.67;6.00;;;;;;;17.40;50.61;99981.02;1698445;83;21072;-75
2022/04/23 11:47:19;;;;;;;7.50;6.30;;;;;;;18.64;49.89;99965.13;1702734;83;21129;-76
2022/04/23 11:49:43;;;;;;;7.45;6.75;;;;;;;19.06;48.96;99965.41;1691887;83;21059;-76
2022/04/23 11:52:14;;;;;;;7.97;6.37;;;;;;;19.37;48.24;99963.83;1694127;83;21036;-86
2022/04/23 11:54:44;;;;;;;6.58;5.97;;;;;;;19.64;48.14;99959.88;1700767;83;20999;-75
2022/04/23 11:57:17;;;;;;;7.08;5.85;;;;;;;19.74;47.25;99954.20;1698149;83;21572;-79